sensor_id;sensor_type;location;lat;lon;timestamp;P1;durP1;ratioP1;P2;durP2;ratioP2
56593;SDS011;42474;51.660;5.824;2023-10-08T00:02:00;14.63;;;8.23;;
56593;SDS011;42474;51.660;5.824;2023-10-08T00:06:03;17.89;;;7.89;;
56593;SDS011;42474;51.660;5.824;2023-10-08T00:10:00;16.15;;;7.95;;
56593;SDS011;42474;51.660;5.824;2023-10-08T00:14:00;18.42;;;8.58;;
56593;SDS011;42474;51.660;5.824;2023-10-08T00:18:00;15.8;;;8.92;;
56593;SDS011;42474;51.660;5.824;2023-10-08T00:22:00;18.14;;;8.91;;
56593;SDS011;42474;51.660;5.824;2023-10-08T00:26:00;15.93;;;7.98;;
56593;SDS011;42474;51.660;5.824;2023-10-08T00:30:00;17.37;;;8.83;;
56593;SDS011;42474;51.660;5.824;2023-10-08T00:34:00;16.32;;;8.16;;
56593;SDS011;42474;51.660;5.824;2023-10-08T00:38:00;19.52;;;8.71;;
56593;SDS011;42474;51.660;5.824;2023-10-08T00:42:00;20.53;;;8.95;;
56593;SDS011;42474;51.660;5.824;2023-10-08T00:46:00;22.13;;;9.06;;
56593;SDS011;42474;51.660;5.824;2023-10-08T00:50:00;22.98;;;9.44;;
56593;SDS011;42474;51.660;5.824;2023-10-08T00:54:03;24.22;;;9.47;;
56593;SDS011;42474;51.660;5.824;2023-10-08T00:58:00;17.13;;;9.04;;
56593;SDS011;42474;51.660;5.824;2023-10-08T01:02:00;17.31;;;8.13;;
56593;SDS011;42474;51.660;5.824;2023-10-08T01:06:00;19.29;;;9.32;;
56593;SDS011;42474;51.660;5.824;2023-10-08T01:10:00;19.03;;;9.06;;
56593;SDS011;42474;51.660;5.824;2023-10-08T01:14:00;18.91;;;8.42;;
56593;SDS011;42474;51.660;5.824;2023-10-08T01:18:00;19.02;;;9.12;;
56593;SDS011;42474;51.660;5.824;2023-10-08T01:22:03;18.4;;;8.98;;
56593;SDS011;42474;51.660;5.824;2023-10-08T01:26:00;20.34;;;8.93;;
56593;SDS011;42474;51.660;5.824;2023-10-08T01:34:00;21.4;;;8.82;;
56593;SDS011;42474;51.660;5.824;2023-10-08T01:38:00;22.77;;;9.56;;
56593;SDS011;42474;51.660;5.824;2023-10-08T01:42:00;21.45;;;9.62;;
56593;SDS011;42474;51.660;5.824;2023-10-08T01:46:02;19.85;;;9.66;;
56593;SDS011;42474;51.660;5.824;2023-10-08T01:50:00;25.76;;;10.14;;
56593;SDS011;42474;51.660;5.824;2023-10-08T01:54:00;19.67;;;9.77;;
56593;SDS011;42474;51.660;5.824;2023-10-08T01:58:00;21.28;;;10.24;;
56593;SDS011;42474;51.660;5.824;2023-10-08T02:02:00;18.91;;;9.37;;
56593;SDS011;42474;51.660;5.824;2023-10-08T02:06:00;21.67;;;9.37;;
56593;SDS011;42474;51.660;5.824;2023-10-08T02:10:00;19.87;;;9.81;;
56593;SDS011;42474;51.660;5.824;2023-10-08T02:14:00;19.34;;;9.84;;
56593;SDS011;42474;51.660;5.824;2023-10-08T02:18:00;19.57;;;9.43;;
56593;SDS011;42474;51.660;5.824;2023-10-08T02:22:00;20.6;;;9.31;;
56593;SDS011;42474;51.660;5.824;2023-10-08T02:26:00;18.65;;;9.51;;
56593;SDS011;42474;51.660;5.824;2023-10-08T02:30:00;21.22;;;9.91;;
56593;SDS011;42474;51.660;5.824;2023-10-08T02:34:00;26.71;;;9.78;;
56593;SDS011;42474;51.660;5.824;2023-10-08T02:38:00;25.15;;;10.1;;
56593;SDS011;42474;51.660;5.824;2023-10-08T02:42:00;24.73;;;10.38;;
56593;SDS011;42474;51.660;5.824;2023-10-08T02:46:00;23.61;;;9.79;;
56593;SDS011;42474;51.660;5.824;2023-10-08T02:50:00;23.37;;;9.81;;
56593;SDS011;42474;51.660;5.824;2023-10-08T02:54:00;24.84;;;10.26;;
56593;SDS011;42474;51.660;5.824;2023-10-08T02:58:00;21.1;;;10.27;;
56593;SDS011;42474;51.660;5.824;2023-10-08T03:02:00;23.45;;;10.13;;
56593;SDS011;42474;51.660;5.824;2023-10-08T03:06:00;25.03;;;10.4;;
56593;SDS011;42474;51.660;5.824;2023-10-08T03:10:00;25.98;;;10.91;;
56593;SDS011;42474;51.660;5.824;2023-10-08T03:14:00;24.09;;;9.88;;
56593;SDS011;42474;51.660;5.824;2023-10-08T03:18:00;23.81;;;10.83;;
56593;SDS011;42474;51.660;5.824;2023-10-08T03:22:00;20.2;;;11.04;;
56593;SDS011;42474;51.660;5.824;2023-10-08T03:26:02;26.98;;;12.02;;
56593;SDS011;42474;51.660;5.824;2023-10-08T03:30:00;23.12;;;11.01;;
56593;SDS011;42474;51.660;5.824;2023-10-08T03:34:01;25.85;;;11.93;;
56593;SDS011;42474;51.660;5.824;2023-10-08T03:38:00;22.81;;;11.42;;
56593;SDS011;42474;51.660;5.824;2023-10-08T03:42:00;25.92;;;12.27;;
56593;SDS011;42474;51.660;5.824;2023-10-08T03:46:00;24.11;;;11.38;;
56593;SDS011;42474;51.660;5.824;2023-10-08T03:50:00;25.25;;;11.93;;
56593;SDS011;42474;51.660;5.824;2023-10-08T03:54:00;28.3;;;12.94;;
56593;SDS011;42474;51.660;5.824;2023-10-08T03:58:00;28.29;;;13.37;;
56593;SDS011;42474;51.660;5.824;2023-10-08T04:02:01;28.13;;;11.69;;
56593;SDS011;42474;51.660;5.824;2023-10-08T04:06:00;25.6;;;11.92;;
56593;SDS011;42474;51.660;5.824;2023-10-08T04:10:01;22.14;;;12.28;;
56593;SDS011;42474;51.660;5.824;2023-10-08T04:14:00;27.12;;;12.98;;
56593;SDS011;42474;51.660;5.824;2023-10-08T04:18:00;27.58;;;11.46;;
56593;SDS011;42474;51.660;5.824;2023-10-08T04:22:00;30.04;;;12.54;;
56593;SDS011;42474;51.660;5.824;2023-10-08T04:26:00;23.28;;;12;;
56593;SDS011;42474;51.660;5.824;2023-10-08T04:30:00;29.31;;;12.63;;
56593;SDS011;42474;51.660;5.824;2023-10-08T04:34:00;25.02;;;11.87;;
56593;SDS011;42474;51.660;5.824;2023-10-08T04:38:00;26.72;;;11.95;;
56593;SDS011;42474;51.660;5.824;2023-10-08T04:42:01;23.21;;;12.26;;
56593;SDS011;42474;51.660;5.824;2023-10-08T04:46:00;24.9;;;12.31;;
56593;SDS011;42474;51.660;5.824;2023-10-08T04:50:00;27.52;;;12.36;;
56593;SDS011;42474;51.660;5.824;2023-10-08T04:54:00;28.6;;;12.78;;
56593;SDS011;42474;51.660;5.824;2023-10-08T04:58:01;25.06;;;12.49;;
56593;SDS011;42474;51.660;5.824;2023-10-08T05:02:01;24.79;;;12.62;;
56593;SDS011;42474;51.660;5.824;2023-10-08T05:06:00;25.36;;;12.52;;
56593;SDS011;42474;51.660;5.824;2023-10-08T05:10:00;29.27;;;12.58;;
56593;SDS011;42474;51.660;5.824;2023-10-08T05:14:00;27.16;;;12.94;;
56593;SDS011;42474;51.660;5.824;2023-10-08T05:18:00;27.26;;;14.05;;
56593;SDS011;42474;51.660;5.824;2023-10-08T05:22:00;27.01;;;13.05;;
56593;SDS011;42474;51.660;5.824;2023-10-08T05:26:03;26.21;;;12.13;;
56593;SDS011;42474;51.660;5.824;2023-10-08T05:30:02;31.24;;;13.22;;
56593;SDS011;42474;51.660;5.824;2023-10-08T05:34:00;30.19;;;13.61;;
56593;SDS011;42474;51.660;5.824;2023-10-08T05:38:00;29.5;;;13.79;;
56593;SDS011;42474;51.660;5.824;2023-10-08T05:42:00;33.62;;;13.97;;
56593;SDS011;42474;51.660;5.824;2023-10-08T05:46:00;26.61;;;13.98;;
56593;SDS011;42474;51.660;5.824;2023-10-08T05:50:01;30.09;;;13.88;;
56593;SDS011;42474;51.660;5.824;2023-10-08T05:54:00;31.25;;;14.32;;
56593;SDS011;42474;51.660;5.824;2023-10-08T05:58:02;27.26;;;13.31;;
56593;SDS011;42474;51.660;5.824;2023-10-08T06:02:00;28.67;;;13.95;;
56593;SDS011;42474;51.660;5.824;2023-10-08T06:06:01;29.44;;;14.75;;
56593;SDS011;42474;51.660;5.824;2023-10-08T06:10:00;30.85;;;14.89;;
56593;SDS011;42474;51.660;5.824;2023-10-08T06:14:00;29.94;;;15.15;;
56593;SDS011;42474;51.660;5.824;2023-10-08T06:18:01;29.84;;;15.39;;
56593;SDS011;42474;51.660;5.824;2023-10-08T06:22:00;31.36;;;15.52;;
56593;SDS011;42474;51.660;5.824;2023-10-08T06:26:01;26.44;;;13.83;;
56593;SDS011;42474;51.660;5.824;2023-10-08T06:30:00;32.38;;;15.41;;
56593;SDS011;42474;51.660;5.824;2023-10-08T06:34:01;32.27;;;15.81;;
56593;SDS011;42474;51.660;5.824;2023-10-08T06:38:00;32.15;;;16.67;;
56593;SDS011;42474;51.660;5.824;2023-10-08T06:42:00;32.03;;;16.37;;
56593;SDS011;42474;51.660;5.824;2023-10-08T06:46:00;33.44;;;16.04;;
56593;SDS011;42474;51.660;5.824;2023-10-08T06:50:00;28.55;;;15.78;;
56593;SDS011;42474;51.660;5.824;2023-10-08T06:54:00;31.28;;;15.55;;
56593;SDS011;42474;51.660;5.824;2023-10-08T06:58:01;38.45;;;16.76;;
56593;SDS011;42474;51.660;5.824;2023-10-08T07:02:00;32.62;;;15.33;;
56593;SDS011;42474;51.660;5.824;2023-10-08T07:06:00;30.81;;;15.37;;
56593;SDS011;42474;51.660;5.824;2023-10-08T07:10:01;34.11;;;15.82;;
56593;SDS011;42474;51.660;5.824;2023-10-08T07:14:00;27.49;;;15.07;;
56593;SDS011;42474;51.660;5.824;2023-10-08T07:18:00;26.37;;;14.29;;
56593;SDS011;42474;51.660;5.824;2023-10-08T07:22:01;38.48;;;16.99;;
56593;SDS011;42474;51.660;5.824;2023-10-08T07:26:02;50.84;;;16.79;;
56593;SDS011;42474;51.660;5.824;2023-10-08T07:30:00;48.45;;;16.71;;
56593;SDS011;42474;51.660;5.824;2023-10-08T07:34:00;50.08;;;16.6;;
56593;SDS011;42474;51.660;5.824;2023-10-08T07:38:00;58.65;;;16.48;;
56593;SDS011;42474;51.660;5.824;2023-10-08T07:42:02;51.27;;;15.17;;
56593;SDS011;42474;51.660;5.824;2023-10-08T07:46:00;52.95;;;15.91;;
56593;SDS011;42474;51.660;5.824;2023-10-08T07:50:01;44.03;;;13.54;;
56593;SDS011;42474;51.660;5.824;2023-10-08T07:54:00;45.14;;;14.79;;
56593;SDS011;42474;51.660;5.824;2023-10-08T07:58:00;49.33;;;13.51;;
56593;SDS011;42474;51.660;5.824;2023-10-08T08:02:00;49.13;;;13.16;;
56593;SDS011;42474;51.660;5.824;2023-10-08T08:06:00;55.68;;;12.96;;
56593;SDS011;42474;51.660;5.824;2023-10-08T08:10:00;56.82;;;13.94;;
56593;SDS011;42474;51.660;5.824;2023-10-08T08:14:00;47.09;;;13.48;;
56593;SDS011;42474;51.660;5.824;2023-10-08T08:18:00;41.95;;;13.73;;
56593;SDS011;42474;51.660;5.824;2023-10-08T08:22:00;32.59;;;12.23;;
56593;SDS011;42474;51.660;5.824;2023-10-08T08:26:00;33.57;;;11.62;;
56593;SDS011;42474;51.660;5.824;2023-10-08T08:30:01;29.24;;;12.68;;
56593;SDS011;42474;51.660;5.824;2023-10-08T08:34:01;31.11;;;12.22;;
56593;SDS011;42474;51.660;5.824;2023-10-08T08:38:00;26.06;;;12.31;;
56593;SDS011;42474;51.660;5.824;2023-10-08T08:42:01;27.23;;;12.89;;
56593;SDS011;42474;51.660;5.824;2023-10-08T08:46:02;26.47;;;12.13;;
56593;SDS011;42474;51.660;5.824;2023-10-08T08:50:01;27.06;;;12.03;;
56593;SDS011;42474;51.660;5.824;2023-10-08T08:54:01;23.31;;;11.87;;
56593;SDS011;42474;51.660;5.824;2023-10-08T08:58:01;23.75;;;10.55;;
56593;SDS011;42474;51.660;5.824;2023-10-08T09:02:00;18.61;;;8.84;;
56593;SDS011;42474;51.660;5.824;2023-10-08T09:06:00;16.27;;;8;;
56593;SDS011;42474;51.660;5.824;2023-10-08T09:10:00;15.42;;;6.56;;
56593;SDS011;42474;51.660;5.824;2023-10-08T09:14:02;18.19;;;6.12;;
56593;SDS011;42474;51.660;5.824;2023-10-08T09:18:02;12.49;;;4.73;;
56593;SDS011;42474;51.660;5.824;2023-10-08T09:22:02;15.63;;;5.43;;
56593;SDS011;42474;51.660;5.824;2023-10-08T09:26:00;13.88;;;6.33;;
56593;SDS011;42474;51.660;5.824;2023-10-08T09:30:04;13.18;;;6.02;;
56593;SDS011;42474;51.660;5.824;2023-10-08T09:34:03;15.17;;;5.91;;
56593;SDS011;42474;51.660;5.824;2023-10-08T09:38:02;13.44;;;5.58;;
56593;SDS011;42474;51.660;5.824;2023-10-08T09:42:02;12.62;;;4.75;;
56593;SDS011;42474;51.660;5.824;2023-10-08T09:46:09;9.84;;;4.13;;
56593;SDS011;42474;51.660;5.824;2023-10-08T09:50:02;10;;;4;;
56593;SDS011;42474;51.660;5.824;2023-10-08T09:54:05;10.86;;;3.86;;
56593;SDS011;42474;51.660;5.824;2023-10-08T09:58:00;13.77;;;5.04;;
56593;SDS011;42474;51.660;5.824;2023-10-08T10:02:01;13.13;;;5.81;;
56593;SDS011;42474;51.660;5.824;2023-10-08T10:06:00;12.41;;;5.99;;
56593;SDS011;42474;51.660;5.824;2023-10-08T10:10:00;13.8;;;5.21;;
56593;SDS011;42474;51.660;5.824;2023-10-08T10:14:02;12.75;;;4.86;;
56593;SDS011;42474;51.660;5.824;2023-10-08T10:18:08;9.95;;;4.35;;
56593;SDS011;42474;51.660;5.824;2023-10-08T10:22:01;13.22;;;4.4;;
56593;SDS011;42474;51.660;5.824;2023-10-08T10:26:01;12.34;;;4.24;;
56593;SDS011;42474;51.660;5.824;2023-10-08T10:30:03;12.12;;;4.1;;
56593;SDS011;42474;51.660;5.824;2023-10-08T10:34:04;11.28;;;3.98;;
56593;SDS011;42474;51.660;5.824;2023-10-08T10:38:01;10.21;;;4.01;;
56593;SDS011;42474;51.660;5.824;2023-10-08T10:42:01;8.54;;;3.66;;
56593;SDS011;42474;51.660;5.824;2023-10-08T10:46:01;14.89;;;4.05;;
56593;SDS011;42474;51.660;5.824;2023-10-08T10:50:00;14.65;;;4.93;;
56593;SDS011;42474;51.660;5.824;2023-10-08T10:54:01;9.27;;;4.24;;
56593;SDS011;42474;51.660;5.824;2023-10-08T10:58:01;11.3;;;4.43;;
56593;SDS011;42474;51.660;5.824;2023-10-08T11:02:00;9.49;;;5.19;;
56593;SDS011;42474;51.660;5.824;2023-10-08T11:06:01;7.96;;;5.12;;
56593;SDS011;42474;51.660;5.824;2023-10-08T11:10:01;11.9;;;5.68;;
56593;SDS011;42474;51.660;5.824;2023-10-08T11:14:00;15.41;;;6.58;;
56593;SDS011;42474;51.660;5.824;2023-10-08T11:18:01;11.69;;;6.51;;
56593;SDS011;42474;51.660;5.824;2023-10-08T11:22:01;16.18;;;8.47;;
56593;SDS011;42474;51.660;5.824;2023-10-08T11:26:03;13.46;;;9.3;;
56593;SDS011;42474;51.660;5.824;2023-10-08T11:30:01;16.07;;;8.85;;
56593;SDS011;42474;51.660;5.824;2023-10-08T11:34:03;14.31;;;10.14;;
56593;SDS011;42474;51.660;5.824;2023-10-08T11:38:00;13.01;;;8.91;;
56593;SDS011;42474;51.660;5.824;2023-10-08T11:42:02;11.41;;;7.82;;
56593;SDS011;42474;51.660;5.824;2023-10-08T11:46:01;12.1;;;7.26;;
56593;SDS011;42474;51.660;5.824;2023-10-08T11:50:01;11.88;;;7.65;;
56593;SDS011;42474;51.660;5.824;2023-10-08T11:54:01;12.69;;;7.06;;
56593;SDS011;42474;51.660;5.824;2023-10-08T11:58:01;11.58;;;6.53;;
56593;SDS011;42474;51.660;5.824;2023-10-08T12:02:01;11.18;;;5.68;;
56593;SDS011;42474;51.660;5.824;2023-10-08T12:06:01;11.84;;;6.68;;
56593;SDS011;42474;51.660;5.824;2023-10-08T12:10:01;10.55;;;6.76;;
56593;SDS011;42474;51.660;5.824;2023-10-08T12:14:01;12.72;;;7.2;;
56593;SDS011;42474;51.660;5.824;2023-10-08T12:18:01;10.75;;;6.13;;
56593;SDS011;42474;51.660;5.824;2023-10-08T12:22:01;10.72;;;6.11;;
56593;SDS011;42474;51.660;5.824;2023-10-08T12:26:01;13.2;;;6.56;;
56593;SDS011;42474;51.660;5.824;2023-10-08T12:30:01;11.26;;;6.5;;
56593;SDS011;42474;51.660;5.824;2023-10-08T12:34:01;10.11;;;6.68;;
56593;SDS011;42474;51.660;5.824;2023-10-08T12:38:01;9.63;;;6.57;;
56593;SDS011;42474;51.660;5.824;2023-10-08T12:42:01;11.57;;;6.97;;
56593;SDS011;42474;51.660;5.824;2023-10-08T12:46:01;14.52;;;7.5;;
56593;SDS011;42474;51.660;5.824;2023-10-08T12:50:01;18.58;;;8.37;;
56593;SDS011;42474;51.660;5.824;2023-10-08T12:54:01;17.53;;;9.34;;
56593;SDS011;42474;51.660;5.824;2023-10-08T12:58:01;13.55;;;8.9;;
56593;SDS011;42474;51.660;5.824;2023-10-08T13:02:01;18.83;;;11.49;;
56593;SDS011;42474;51.660;5.824;2023-10-08T13:06:01;19.76;;;10.95;;
56593;SDS011;42474;51.660;5.824;2023-10-08T13:10:01;22.88;;;13.1;;
56593;SDS011;42474;51.660;5.824;2023-10-08T13:14:01;21.14;;;13.54;;
56593;SDS011;42474;51.660;5.824;2023-10-08T13:18:01;25.82;;;13.84;;
56593;SDS011;42474;51.660;5.824;2023-10-08T13:22:01;23.01;;;14.78;;
56593;SDS011;42474;51.660;5.824;2023-10-08T13:26:01;27.26;;;16.84;;
56593;SDS011;42474;51.660;5.824;2023-10-08T13:30:01;32.71;;;19.8;;
56593;SDS011;42474;51.660;5.824;2023-10-08T13:34:01;32.15;;;23.26;;
56593;SDS011;42474;51.660;5.824;2023-10-08T13:38:01;36.98;;;24.47;;
56593;SDS011;42474;51.660;5.824;2023-10-08T13:42:01;32.54;;;24.51;;
56593;SDS011;42474;51.660;5.824;2023-10-08T13:46:02;40.18;;;27.14;;
56593;SDS011;42474;51.660;5.824;2023-10-08T13:50:01;37.64;;;24.51;;
56593;SDS011;42474;51.660;5.824;2023-10-08T13:54:01;35.18;;;24.69;;
56593;SDS011;42474;51.660;5.824;2023-10-08T13:58:01;41.98;;;26.78;;
56593;SDS011;42474;51.660;5.824;2023-10-08T14:02:01;40.14;;;26.27;;
56593;SDS011;42474;51.660;5.824;2023-10-08T14:06:01;43.96;;;27.55;;
56593;SDS011;42474;51.660;5.824;2023-10-08T14:10:01;39.82;;;26.22;;
56593;SDS011;42474;51.660;5.824;2023-10-08T14:14:01;40.24;;;27.72;;
56593;SDS011;42474;51.660;5.824;2023-10-08T14:18:01;43.59;;;26.41;;
56593;SDS011;42474;51.660;5.824;2023-10-08T14:26:01;42.82;;;25.03;;
56593;SDS011;42474;51.660;5.824;2023-10-08T14:30:01;43.9;;;25.75;;
56593;SDS011;42474;51.660;5.824;2023-10-08T14:34:01;42.66;;;24.52;;
56593;SDS011;42474;51.660;5.824;2023-10-08T14:38:01;45.05;;;24.81;;
56593;SDS011;42474;51.660;5.824;2023-10-08T14:42:01;46.85;;;25.62;;
56593;SDS011;42474;51.660;5.824;2023-10-08T14:46:01;46.55;;;26.36;;
56593;SDS011;42474;51.660;5.824;2023-10-08T14:50:01;46.66;;;24.27;;
56593;SDS011;42474;51.660;5.824;2023-10-08T14:54:01;42.78;;;22.48;;
56593;SDS011;42474;51.660;5.824;2023-10-08T14:58:01;44.12;;;23.74;;
56593;SDS011;42474;51.660;5.824;2023-10-08T15:02:01;53.82;;;25.45;;
56593;SDS011;42474;51.660;5.824;2023-10-08T15:06:01;48.71;;;26.78;;
56593;SDS011;42474;51.660;5.824;2023-10-08T15:10:01;50.81;;;25.43;;
56593;SDS011;42474;51.660;5.824;2023-10-08T15:14:01;55.55;;;30.3;;
56593;SDS011;42474;51.660;5.824;2023-10-08T15:18:01;60.83;;;32.93;;
56593;SDS011;42474;51.660;5.824;2023-10-08T15:22:01;60.92;;;29.5;;
56593;SDS011;42474;51.660;5.824;2023-10-08T15:26:01;55.91;;;28.53;;
56593;SDS011;42474;51.660;5.824;2023-10-08T15:30:01;55.29;;;31.83;;
56593;SDS011;42474;51.660;5.824;2023-10-08T15:34:01;54.66;;;31.59;;
56593;SDS011;42474;51.660;5.824;2023-10-08T15:38:01;59.48;;;35.41;;
56593;SDS011;42474;51.660;5.824;2023-10-08T15:42:01;58.46;;;33.68;;
56593;SDS011;42474;51.660;5.824;2023-10-08T15:46:01;68.02;;;35.3;;
56593;SDS011;42474;51.660;5.824;2023-10-08T15:50:01;63.16;;;34.22;;
56593;SDS011;42474;51.660;5.824;2023-10-08T15:54:01;65.35;;;34.73;;
56593;SDS011;42474;51.660;5.824;2023-10-08T15:58:01;56.76;;;30.21;;
56593;SDS011;42474;51.660;5.824;2023-10-08T16:02:01;61.18;;;29.75;;
56593;SDS011;42474;51.660;5.824;2023-10-08T16:06:01;55.17;;;28.22;;
56593;SDS011;42474;51.660;5.824;2023-10-08T16:10:01;51.9;;;28.42;;
56593;SDS011;42474;51.660;5.824;2023-10-08T16:14:01;53.57;;;28.77;;
56593;SDS011;42474;51.660;5.824;2023-10-08T16:18:01;51.14;;;27.86;;
56593;SDS011;42474;51.660;5.824;2023-10-08T16:22:01;52.28;;;29.04;;
56593;SDS011;42474;51.660;5.824;2023-10-08T16:26:01;48.8;;;26.22;;
56593;SDS011;42474;51.660;5.824;2023-10-08T16:30:01;51.52;;;26.73;;
56593;SDS011;42474;51.660;5.824;2023-10-08T16:34:01;52.63;;;26.18;;
56593;SDS011;42474;51.660;5.824;2023-10-08T16:38:01;49.39;;;25.55;;
56593;SDS011;42474;51.660;5.824;2023-10-08T16:42:01;49.74;;;25.88;;
56593;SDS011;42474;51.660;5.824;2023-10-08T16:46:01;48.1;;;25.31;;
56593;SDS011;42474;51.660;5.824;2023-10-08T16:50:01;48.84;;;25.02;;
56593;SDS011;42474;51.660;5.824;2023-10-08T16:54:01;53.98;;;26.37;;
56593;SDS011;42474;51.660;5.824;2023-10-08T16:58:01;55.05;;;26.51;;
56593;SDS011;42474;51.660;5.824;2023-10-08T17:02:01;52.4;;;26.61;;
56593;SDS011;42474;51.660;5.824;2023-10-08T17:06:01;47.2;;;26.24;;
56593;SDS011;42474;51.660;5.824;2023-10-08T17:10:01;45.24;;;24.64;;
56593;SDS011;42474;51.660;5.824;2023-10-08T17:14:01;52.06;;;25.83;;
56593;SDS011;42474;51.660;5.824;2023-10-08T17:18:01;52.88;;;27.08;;
56593;SDS011;42474;51.660;5.824;2023-10-08T17:26:01;51.84;;;25.54;;
56593;SDS011;42474;51.660;5.824;2023-10-08T17:30:01;49.32;;;24.57;;
56593;SDS011;42474;51.660;5.824;2023-10-08T17:34:01;45.51;;;23.11;;
56593;SDS011;42474;51.660;5.824;2023-10-08T17:38:01;44.81;;;20.62;;
56593;SDS011;42474;51.660;5.824;2023-10-08T17:42:01;41.48;;;21.97;;
56593;SDS011;42474;51.660;5.824;2023-10-08T17:46:01;44.37;;;22.78;;
56593;SDS011;42474;51.660;5.824;2023-10-08T17:50:01;44.95;;;23.8;;
56593;SDS011;42474;51.660;5.824;2023-10-08T17:54:01;42.69;;;22.19;;
56593;SDS011;42474;51.660;5.824;2023-10-08T17:58:01;43.31;;;21.51;;
56593;SDS011;42474;51.660;5.824;2023-10-08T18:02:01;50.35;;;25.64;;
56593;SDS011;42474;51.660;5.824;2023-10-08T18:06:01;46.61;;;22.58;;
56593;SDS011;42474;51.660;5.824;2023-10-08T18:10:01;46.74;;;24.61;;
56593;SDS011;42474;51.660;5.824;2023-10-08T18:14:01;49.17;;;22.78;;
56593;SDS011;42474;51.660;5.824;2023-10-08T18:18:01;39.17;;;20.22;;
56593;SDS011;42474;51.660;5.824;2023-10-08T18:22:01;40.2;;;21.31;;
56593;SDS011;42474;51.660;5.824;2023-10-08T18:26:01;39.34;;;20.3;;
56593;SDS011;42474;51.660;5.824;2023-10-08T18:30:01;39.45;;;19.79;;
56593;SDS011;42474;51.660;5.824;2023-10-08T18:34:01;38.08;;;19.58;;
56593;SDS011;42474;51.660;5.824;2023-10-08T18:38:01;37.07;;;19.54;;
56593;SDS011;42474;51.660;5.824;2023-10-08T18:42:01;35.61;;;18.68;;
56593;SDS011;42474;51.660;5.824;2023-10-08T18:46:02;40.56;;;20.11;;
56593;SDS011;42474;51.660;5.824;2023-10-08T18:50:01;40.16;;;20.52;;
56593;SDS011;42474;51.660;5.824;2023-10-08T18:54:01;41.87;;;20.51;;
56593;SDS011;42474;51.660;5.824;2023-10-08T18:58:01;36.54;;;19.31;;
56593;SDS011;42474;51.660;5.824;2023-10-08T19:02:01;33.82;;;15.7;;
56593;SDS011;42474;51.660;5.824;2023-10-08T19:06:01;35.01;;;17.81;;
56593;SDS011;42474;51.660;5.824;2023-10-08T19:10:02;33.12;;;18.24;;
56593;SDS011;42474;51.660;5.824;2023-10-08T19:14:01;39.63;;;18.99;;
56593;SDS011;42474;51.660;5.824;2023-10-08T19:22:01;33.74;;;17.02;;
56593;SDS011;42474;51.660;5.824;2023-10-08T19:26:01;33.65;;;16.87;;
56593;SDS011;42474;51.660;5.824;2023-10-08T19:30:01;30.05;;;17.11;;
56593;SDS011;42474;51.660;5.824;2023-10-08T19:34:01;31.42;;;17.28;;
56593;SDS011;42474;51.660;5.824;2023-10-08T19:38:01;32.18;;;17.25;;
56593;SDS011;42474;51.660;5.824;2023-10-08T19:42:01;27.86;;;15.61;;
56593;SDS011;42474;51.660;5.824;2023-10-08T19:46:01;31.95;;;16.6;;
56593;SDS011;42474;51.660;5.824;2023-10-08T19:50:01;30.45;;;16.45;;
56593;SDS011;42474;51.660;5.824;2023-10-08T19:54:01;30.01;;;16.28;;
56593;SDS011;42474;51.660;5.824;2023-10-08T19:58:01;30.26;;;16.25;;
56593;SDS011;42474;51.660;5.824;2023-10-08T20:02:01;32.87;;;17.03;;
56593;SDS011;42474;51.660;5.824;2023-10-08T20:06:01;35.6;;;16.8;;
56593;SDS011;42474;51.660;5.824;2023-10-08T20:10:01;31.5;;;18.08;;
56593;SDS011;42474;51.660;5.824;2023-10-08T20:14:01;30.34;;;16.33;;
56593;SDS011;42474;51.660;5.824;2023-10-08T20:18:01;31.04;;;17.04;;
56593;SDS011;42474;51.660;5.824;2023-10-08T20:22:01;29.91;;;16.6;;
56593;SDS011;42474;51.660;5.824;2023-10-08T20:26:09;32.79;;;18.11;;
56593;SDS011;42474;51.660;5.824;2023-10-08T20:30:01;33.16;;;16.88;;
56593;SDS011;42474;51.660;5.824;2023-10-08T20:34:01;28.67;;;16.46;;
56593;SDS011;42474;51.660;5.824;2023-10-08T20:38:01;37.98;;;17.1;;
56593;SDS011;42474;51.660;5.824;2023-10-08T20:42:01;36.74;;;17.03;;
56593;SDS011;42474;51.660;5.824;2023-10-08T20:46:01;28.14;;;15.42;;
56593;SDS011;42474;51.660;5.824;2023-10-08T20:50:02;34.94;;;17.26;;
56593;SDS011;42474;51.660;5.824;2023-10-08T20:54:01;41.52;;;19.74;;
56593;SDS011;42474;51.660;5.824;2023-10-08T20:58:01;37.41;;;19.71;;
56593;SDS011;42474;51.660;5.824;2023-10-08T21:02:01;33.97;;;18.05;;
56593;SDS011;42474;51.660;5.824;2023-10-08T21:06:01;32.47;;;17.25;;
56593;SDS011;42474;51.660;5.824;2023-10-08T21:10:01;35.64;;;18.64;;
56593;SDS011;42474;51.660;5.824;2023-10-08T21:14:01;32.73;;;19;;
56593;SDS011;42474;51.660;5.824;2023-10-08T21:18:01;37.61;;;17.79;;
56593;SDS011;42474;51.660;5.824;2023-10-08T21:22:01;33.15;;;17.12;;
56593;SDS011;42474;51.660;5.824;2023-10-08T21:26:01;35.45;;;17.98;;
56593;SDS011;42474;51.660;5.824;2023-10-08T21:30:01;37.51;;;18.61;;
56593;SDS011;42474;51.660;5.824;2023-10-08T21:34:01;30.73;;;17.77;;
56593;SDS011;42474;51.660;5.824;2023-10-08T21:38:01;27.46;;;16.81;;
56593;SDS011;42474;51.660;5.824;2023-10-08T21:42:01;31.66;;;18.86;;
56593;SDS011;42474;51.660;5.824;2023-10-08T21:46:01;31.57;;;18.14;;
56593;SDS011;42474;51.660;5.824;2023-10-08T21:50:01;34.28;;;17.82;;
56593;SDS011;42474;51.660;5.824;2023-10-08T21:54:01;38.66;;;20.36;;
56593;SDS011;42474;51.660;5.824;2023-10-08T21:58:01;42.81;;;22.49;;
56593;SDS011;42474;51.660;5.824;2023-10-08T22:02:01;48.39;;;24.05;;
56593;SDS011;42474;51.660;5.824;2023-10-08T22:06:01;44.81;;;23.8;;
56593;SDS011;42474;51.660;5.824;2023-10-08T22:10:01;53.45;;;25.17;;
56593;SDS011;42474;51.660;5.824;2023-10-08T22:14:01;47.75;;;23.62;;
56593;SDS011;42474;51.660;5.824;2023-10-08T22:18:01;41.18;;;21.16;;
56593;SDS011;42474;51.660;5.824;2023-10-08T22:22:01;44.77;;;21.89;;
56593;SDS011;42474;51.660;5.824;2023-10-08T22:26:01;44.32;;;23.02;;
56593;SDS011;42474;51.660;5.824;2023-10-08T22:30:01;52.59;;;25.27;;
56593;SDS011;42474;51.660;5.824;2023-10-08T22:34:01;58.96;;;28.1;;
56593;SDS011;42474;51.660;5.824;2023-10-08T22:38:01;69.41;;;29.02;;
56593;SDS011;42474;51.660;5.824;2023-10-08T22:42:01;74.07;;;32.63;;
56593;SDS011;42474;51.660;5.824;2023-10-08T22:46:02;75.38;;;34.47;;
56593;SDS011;42474;51.660;5.824;2023-10-08T22:50:01;74.51;;;33.75;;
56593;SDS011;42474;51.660;5.824;2023-10-08T22:54:01;75.61;;;34.48;;
56593;SDS011;42474;51.660;5.824;2023-10-08T22:58:01;72.88;;;34.28;;
56593;SDS011;42474;51.660;5.824;2023-10-08T23:02:01;77.44;;;38.12;;
56593;SDS011;42474;51.660;5.824;2023-10-08T23:06:01;67.71;;;34.86;;
56593;SDS011;42474;51.660;5.824;2023-10-08T23:10:01;74.38;;;37.34;;
56593;SDS011;42474;51.660;5.824;2023-10-08T23:14:01;77.73;;;36.05;;
56593;SDS011;42474;51.660;5.824;2023-10-08T23:18:01;70.88;;;35.57;;
56593;SDS011;42474;51.660;5.824;2023-10-08T23:22:01;76.98;;;37.04;;
56593;SDS011;42474;51.660;5.824;2023-10-08T23:26:01;75.83;;;39.14;;
56593;SDS011;42474;51.660;5.824;2023-10-08T23:30:01;75.85;;;36.38;;
56593;SDS011;42474;51.660;5.824;2023-10-08T23:34:01;69.33;;;36.03;;
56593;SDS011;42474;51.660;5.824;2023-10-08T23:38:01;66.43;;;34.54;;
56593;SDS011;42474;51.660;5.824;2023-10-08T23:42:01;62.82;;;35.24;;
56593;SDS011;42474;51.660;5.824;2023-10-08T23:46:01;72.41;;;35.6;;
56593;SDS011;42474;51.660;5.824;2023-10-08T23:50:01;65.38;;;34.61;;